Time;durP1;ratioP1;P1;durP2;ratioP2;P2;SDS_P1;SDS_P2;PMS_P1;PMS_P2;Temp;Humidity;BMP_temperature;BMP_pressure;BME280_temperature;BME280_humidity;BME280_pressure;Samples;Min_cycle;Max_cycle;Signal;HPM_P1;HPM_P2
2021/11/25 00:00:54;;;;;;;;;;;;;;;12.96;57.01;100625.41;4985117;27;116061;-65
2021/11/25 00:03:20;;;;;;;;;;;;;;;12.96;56.83;100616.47;5002862;27;128462;-65
2021/11/25 00:05:46;;;;;;;;;;;;;;;12.96;56.83;100616.47;5005932;27;98289;-57
2021/11/25 00:08:12;;;;;;;;;;;;;;;12.95;56.82;100612.97;5003520;27;127137;-57
2021/11/25 00:10:40;;;;;;;;;;;;;;;12.94;56.65;100614.06;5004093;27;118101;-65
2021/11/25 00:13:06;;;;;;;;;;;;;;;12.93;56.61;100615.16;5003781;27;98598;-65
2021/11/25 00:15:32;;;;;;;;;;;;;;;12.93;56.68;100608.91;5004088;27;125947;-65
2021/11/25 00:17:57;;;;;;;;;;;;;;;12.91;56.47;100603.00;5003178;27;128683;-66
2021/11/25 00:20:24;;;;;;;;;;;;;;;12.90;56.40;100598.69;5006852;27;117470;-58
2021/11/25 00:22:50;;;;;;;;;;;;;;;12.89;56.49;100595.16;5006326;27;97778;-59
2021/11/25 00:25:16;;;;;;;;;;;;;;;12.89;56.65;100591.63;5006456;27;127425;-65
2021/11/25 00:27:42;;;;;;;;;;;;;;;12.89;56.39;100586.22;5002566;27;108988;-65
2021/11/25 00:30:08;;;;;;;;;;;;;;;12.87;56.43;100583.81;5005300;27;97650;-65
2021/11/25 00:32:34;;;;;;;;;;;;;;;12.88;56.52;100588.13;4981394;27;120607;-66
2021/11/25 00:35:00;;;;;;;;;;;;;;;12.87;56.38;100575.69;5001760;27;110906;-58
2021/11/25 00:37:26;;;;;;;;;;;;;;;12.86;56.39;100571.38;5002859;27;98120;-58
2021/11/25 00:39:52;;;;;;;;;;;;;;;12.87;56.36;100580.28;5003379;27;117708;-58
2021/11/25 00:42:18;;;;;;;;;;;;;;;12.85;56.49;100585.16;5003681;27;108407;-66
2021/11/25 00:44:44;;;;;;;;;;;;;;;12.85;56.35;100577.03;5003950;27;99841;-66
2021/11/25 00:47:10;;;;;;;;;;;;;;;12.85;56.45;100571.63;5002155;27;127215;-58
2021/11/25 00:49:36;;;;;;;;;;;;;;;12.85;56.33;100566.22;5003181;27;115707;-66
2021/11/25 00:52:02;;;;;;;;;;;;;;;12.83;56.14;100569.22;5002765;27;125891;-66
2021/11/25 00:54:28;;;;;;;;;;;;;;;12.83;56.43;100569.22;5003115;27;112225;-58
2021/11/25 00:56:54;;;;;;;;;;;;;;;12.84;56.26;100570.03;5003045;27;98027;-65
2021/11/25 00:59:19;;;;;;;;;;;;;;;12.84;56.55;100559.19;5002553;27;111309;-58
2021/11/25 01:01:45;;;;;;;;;;;;;;;12.85;56.57;100558.09;5001826;27;128088;-65
2021/11/25 01:04:11;;;;;;;;;;;;;;;12.84;56.38;100557.31;5003764;27;128061;-65
2021/11/25 01:06:37;;;;;;;;;;;;;;;12.85;56.04;100552.69;4984695;27;125623;-65
2021/11/25 01:09:03;;;;;;;;;;;;;;;12.85;56.34;100550.00;5003204;27;116324;-58
2021/11/25 01:11:29;;;;;;;;;;;;;;;12.85;56.28;100547.28;5002798;27;107896;-66
2021/11/25 01:13:55;;;;;;;;;;;;;;;12.85;56.34;100545.41;5002142;27;100376;-66
2021/11/25 01:16:22;;;;;;;;;;;;;;;12.86;56.24;100535.41;5001835;27;127467;-58
2021/11/25 01:18:48;;;;;;;;;;;;;;;12.86;56.34;100540.81;5003394;27;98085;-58
2021/11/25 01:21:14;;;;;;;;;;;;;;;12.86;56.19;100530.00;5002463;27;119831;-58
2021/11/25 01:23:39;;;;;;;;;;;;;;;12.85;56.18;100526.47;4983960;27;127046;-58
2021/11/25 01:26:05;;;;;;;;;;;;;;;12.86;56.12;100521.88;5002691;27;128057;-66
2021/11/25 01:28:31;;;;;;;;;;;;;;;12.87;56.09;100527.00;5002109;27;117617;-59
2021/11/25 01:31:00;;;;;;;;;;;;;;;12.87;56.16;100528.91;5001687;27;129000;-58
2021/11/25 01:33:26;;;;;;;;;;;;;;;12.86;56.27;100521.88;5003600;27;99036;-65
2021/11/25 01:35:52;;;;;;;;;;;;;;;12.85;56.17;100507.53;5002087;27;112741;-58
2021/11/25 01:38:18;;;;;;;;;;;;;;;12.88;56.21;100503.44;5002461;27;102419;-58
2021/11/25 01:40:45;;;;;;;;;;;;;;;12.88;56.16;100496.13;5002168;27;110761;-58
2021/11/25 01:43:11;;;;;;;;;;;;;;;12.89;56.19;100507.75;5001653;27;99250;-66
2021/11/25 01:45:37;;;;;;;;;;;;;;;12.88;56.31;100498.84;5002804;27;98529;-58
2021/11/25 01:48:04;;;;;;;;;;;;;;;12.88;56.02;100488.03;5002585;27;97952;-65
2021/11/25 01:50:30;;;;;;;;;;;;;;;12.88;56.30;100485.31;5003070;27;98673;-59
2021/11/25 01:52:56;;;;;;;;;;;;;;;12.89;56.00;100484.25;5001536;27;122474;-65
2021/11/25 01:55:22;;;;;;;;;;;;;;;12.90;56.09;100468.81;5001916;27;97834;-59
2021/11/25 01:57:49;;;;;;;;;;;;;;;12.89;56.06;100465.31;5004076;27;98161;-58
2021/11/25 02:00:18;;;;;;;;;;;;;;;12.89;55.86;100462.59;5002719;27;98446;-58
2021/11/25 02:02:44;;;;;;;;;;;;;;;12.89;56.04;100459.91;5001166;27;98938;-62
2021/11/25 02:05:10;;;;;;;;;;;;;;;12.90;55.97;100458.00;5000638;27;115328;-59
2021/11/25 02:07:36;;;;;;;;;;;;;;;12.89;56.17;100462.59;5002563;27;98851;-58
2021/11/25 02:10:03;;;;;;;;;;;;;;;12.88;55.93;100450.16;5001890;27;127425;-66
2021/11/25 02:12:29;;;;;;;;;;;;;;;12.89;56.16;100442.84;5000780;27;102054;-66
2021/11/25 02:14:55;;;;;;;;;;;;;;;12.87;56.09;100440.44;5002330;27;98058;-59
2021/11/25 02:17:21;;;;;;;;;;;;;;;12.88;55.91;100441.22;5000392;27;111379;-66
2021/11/25 02:19:47;;;;;;;;;;;;;;;12.88;55.78;100431.22;5002498;27;117945;-65
2021/11/25 02:22:13;;;;;;;;;;;;;;;12.88;56.09;100433.13;4962443;28;120076;-66
2021/11/25 02:24:39;;;;;;;;;;;;;;;12.87;56.09;100429.59;4999557;27;125483;-65
2021/11/25 02:27:05;;;;;;;;;;;;;;;12.87;55.94;100426.09;5002790;27;117507;-58
2021/11/25 02:29:31;;;;;;;;;;;;;;;12.87;55.91;100416.06;5001617;27;126874;-63
2021/11/25 02:31:57;;;;;;;;;;;;;;;12.87;56.08;100409.88;4978912;28;127978;-66
2021/11/25 02:34:23;;;;;;;;;;;;;;;12.87;56.03;100397.16;4995330;27;127733;-66
2021/11/25 02:36:49;;;;;;;;;;;;;;;12.86;55.81;100400.94;5001278;27;117298;-58
2021/11/25 02:39:15;;;;;;;;;;;;;;;12.86;56.01;100400.94;4982547;27;129711;-58
2021/11/25 02:41:41;;;;;;;;;;;;;;;12.85;55.76;100401.22;5001696;27;98910;-58
2021/11/25 02:44:07;;;;;;;;;;;;;;;12.83;56.02;100401.50;5000605;27;127576;-65
2021/11/25 02:46:33;;;;;;;;;;;;;;;12.82;55.85;100390.97;5001095;27;117150;-58
2021/11/25 02:49:02;;;;;;;;;;;;;;;12.81;55.97;100383.94;5001358;27;127473;-58
2021/11/25 02:51:30;;;;;;;;;;;;;;;12.78;55.65;100375.31;5002008;27;98872;-58
2021/11/25 02:53:56;;;;;;;;;;;;;;;12.76;55.67;100376.69;5001312;27;97863;-58
2021/11/25 02:56:23;;;;;;;;;;;;;;;12.74;55.68;100371.56;5002398;27;115538;-66
2021/11/25 02:58:49;;;;;;;;;;;;;;;12.72;55.71;100368.31;4983762;27;112071;-66
2021/11/25 03:01:16;;;;;;;;;;;;;;;12.71;55.62;100372.13;5002251;27;98372;-58
2021/11/25 03:03:42;;;;;;;;;;;;;;;12.69;55.73;100366.22;5001503;27;97826;-66
2021/11/25 03:06:08;;;;;;;;;;;;;;;12.67;55.66;100362.16;5001582;27;116694;-57
2021/11/25 03:08:34;;;;;;;;;;;;;;;12.64;55.74;100358.13;5001468;27;98325;-66
2021/11/25 03:11:05;;;;;;;;;;;;;;;12.63;55.84;100361.91;5001288;27;97865;-58
2021/11/25 03:13:31;;;;;;;;;;;;;;;12.62;55.77;100367.63;5000556;27;107278;-66
2021/11/25 03:15:57;;;;;;;;;;;;;;;12.59;55.66;100362.78;5002120;27;97986;-58
2021/11/25 03:18:23;;;;;;;;;;;;;;;12.58;55.65;100356.56;4981137;27;127894;-66
2021/11/25 03:20:51;;;;;;;;;;;;;;;12.53;55.76;100353.88;5002179;27;98335;-58
2021/11/25 03:23:18;;;;;;;;;;;;;;;12.52;55.58;100354.97;4982479;27;97938;-66
2021/11/25 03:25:45;;;;;;;;;;;;;;;12.51;55.58;100347.97;5001688;27;107385;-58
2021/11/25 03:28:11;;;;;;;;;;;;;;;12.50;55.73;100349.06;5000962;27;99081;-58
2021/11/25 03:30:37;;;;;;;;;;;;;;;12.47;55.60;100344.22;5000562;27;127431;-58
2021/11/25 03:33:04;;;;;;;;;;;;;;;12.46;55.58;100345.31;5001652;27;104801;-58
2021/11/25 03:35:30;;;;;;;;;;;;;;;12.44;55.56;100347.47;5002711;27;109138;-58
2021/11/25 03:37:56;;;;;;;;;;;;;;;12.42;55.46;100341.56;5003605;27;121873;-58
2021/11/25 03:40:22;;;;;;;;;;;;;;;12.40;55.59;100341.81;5005842;27;105377;-65
2021/11/25 03:42:48;;;;;;;;;;;;;;;12.40;55.34;100341.03;5005110;27;98627;-67
2021/11/25 03:45:14;;;;;;;;;;;;;;;12.37;55.26;100325.34;4986259;27;118031;-66
2021/11/25 03:47:44;;;;;;;;;;;;;;;12.36;55.37;100326.44;4969133;27;115428;-66
2021/11/25 03:50:11;;;;;;;;;;;;;;;12.33;55.34;100318.91;5004301;27;98241;-66
2021/11/25 03:52:37;;;;;;;;;;;;;;;12.32;55.17;100322.69;5004448;27;98168;-58
2021/11/25 03:55:04;;;;;;;;;;;;;;;12.27;55.21;100321.66;5005125;27;97904;-58
2021/11/25 03:57:30;;;;;;;;;;;;;;;12.26;55.29;100322.75;5003405;27;107341;-66
2021/11/25 03:59:56;;;;;;;;;;;;;;;12.24;55.17;100324.13;5006200;27;124452;-65
2021/11/25 04:02:22;;;;;;;;;;;;;;;12.22;55.24;100327.09;5004750;27;97874;-65
2021/11/25 04:04:48;;;;;;;;;;;;;;;12.21;55.28;100319.25;5004966;27;97825;-65
2021/11/25 04:07:14;;;;;;;;;;;;;;;12.18;55.17;100326.06;5002121;27;128179;-58
2021/11/25 04:09:40;;;;;;;;;;;;;;;12.16;55.17;100314.72;5003517;27;128170;-58
2021/11/25 04:12:06;;;;;;;;;;;;;;;12.14;55.19;100318.75;5003497;27;122636;-65
2021/11/25 04:14:32;;;;;;;;;;;;;;;12.12;55.18;100312.84;5003999;27;97780;-58
2021/11/25 04:16:58;;;;;;;;;;;;;;;12.10;54.95;100315.00;5003292;27;113866;-57
2021/11/25 04:19:25;;;;;;;;;;;;;;;12.08;55.15;100312.59;5003003;27;129367;-66
2021/11/25 04:21:51;;;;;;;;;;;;;;;12.06;55.09;100314.75;5002957;27;97938;-64
2021/11/25 04:24:17;;;;;;;;;;;;;;;12.03;55.04;100302.66;5004779;27;97784;-57
2021/11/25 04:26:43;;;;;;;;;;;;;;;12.01;55.00;100294.00;5003130;27;112360;-58
2021/11/25 04:29:09;;;;;;;;;;;;;;;11.99;54.99;100293.50;5003487;27;128238;-58
2021/11/25 04:37:05;;;;;;;;;;;;;;;11.92;54.75;100293.00;5002356;27;98306;-58
2021/11/25 04:39:31;;;;;;;;;;;;;;;11.91;55.04;100287.88;4984948;27;115191;-58
2021/11/25 04:41:56;;;;;;;;;;;;;;;11.87;54.92;100274.13;5002519;27;114165;-58
2021/11/25 04:44:22;;;;;;;;;;;;;;;11.86;54.86;100272.50;5002002;27;105059;-57
2021/11/25 04:46:48;;;;;;;;;;;;;;;11.85;54.84;100272.78;5001201;27;114898;-58
2021/11/25 04:49:15;;;;;;;;;;;;;;;11.83;54.84;100283.00;5003994;27;126559;-58
2021/11/25 04:51:41;;;;;;;;;;;;;;;11.80;54.63;100274.41;4984856;27;97813;-66
2021/11/25 04:54:07;;;;;;;;;;;;;;;11.78;54.90;100263.06;5004195;27;97856;-58
2021/11/25 04:56:33;;;;;;;;;;;;;;;11.77;54.83;100269.56;5003130;27;98690;-58
2021/11/25 04:58:59;;;;;;;;;;;;;;;11.75;54.63;100271.75;5003801;27;99096;-57
2021/11/25 05:01:25;;;;;;;;;;;;;;;11.74;54.79;100255.78;5002595;27;118285;-65
2021/11/25 05:03:51;;;;;;;;;;;;;;;11.71;54.46;100259.88;5003795;27;97901;-66
2021/11/25 05:06:17;;;;;;;;;;;;;;;11.70;54.17;100260.94;5002743;27;130255;-58
2021/11/25 05:08:43;;;;;;;;;;;;;;;11.68;54.51;100255.03;5003865;27;98646;-58
2021/11/25 05:11:09;;;;;;;;;;;;;;;11.66;54.61;100256.38;5003599;27;108208;-58
2021/11/25 05:13:35;;;;;;;;;;;;;;;11.65;54.22;100255.59;5002730;27;97987;-58
2021/11/25 05:16:01;;;;;;;;;;;;;;;11.65;54.49;100257.50;4984824;27;98480;-66
2021/11/25 05:18:27;;;;;;;;;;;;;;;11.63;54.64;100255.06;5003474;27;99114;-66
2021/11/25 05:20:53;;;;;;;;;;;;;;;11.61;54.53;100257.22;4984832;27;98231;-58
2021/11/25 05:23:19;;;;;;;;;;;;;;;11.59;54.53;100254.00;5004313;27;98181;-58
2021/11/25 05:25:46;;;;;;;;;;;;;;;11.59;54.46;100259.38;5002076;27;129165;-65
2021/11/25 05:28:12;;;;;;;;;;;;;;;11.58;54.36;100267.78;5002985;27;99036;-65
2021/11/25 05:30:38;;;;;;;;;;;;;;;11.56;54.20;100265.38;4994160;27;97950;-57
2021/11/25 05:33:04;;;;;;;;;;;;;;;11.55;54.42;100264.56;5004672;27;97939;-66
2021/11/25 05:35:30;;;;;;;;;;;;;;;11.54;54.53;100267.53;5003023;27;99097;-65
2021/11/25 05:37:56;;;;;;;;;;;;;;;11.53;54.34;100269.41;5004279;27;107418;-66
2021/11/25 05:40:22;;;;;;;;;;;;;;;11.52;54.48;100259.72;4985817;27;98415;-66
2021/11/25 05:42:48;;;;;;;;;;;;;;;11.53;54.33;100264.03;5003813;27;117525;-66
2021/11/25 05:45:16;;;;;;;;;;;;;;;11.53;54.22;100255.94;5003953;27;98096;-66
2021/11/25 05:47:43;;;;;;;;;;;;;;;11.55;54.33;100258.34;4986748;27;99741;-65
2021/11/25 05:50:11;;;;;;;;;;;;;;;11.56;54.25;100259.97;5004779;27;98347;-65
2021/11/25 05:52:37;;;;;;;;;;;;;;;11.57;54.16;100253.47;4983763;27;97929;-66
2021/11/25 05:55:04;;;;;;;;;;;;;;;11.59;54.48;100250.50;5004862;27;98986;-66
2021/11/25 05:57:30;;;;;;;;;;;;;;;11.60;54.35;100250.22;5003765;27;98926;-66
2021/11/25 05:59:56;;;;;;;;;;;;;;;11.62;54.43;100247.25;5003255;27;128043;-66
2021/11/25 06:02:22;;;;;;;;;;;;;;;11.63;54.08;100254.25;4983273;28;97853;-66
2021/11/25 06:04:48;;;;;;;;;;;;;;;11.64;54.05;100242.38;5003346;27;98939;-64
2021/11/25 06:07:14;;;;;;;;;;;;;;;11.65;54.34;100247.50;5004609;27;100865;-66
2021/11/25 06:09:40;;;;;;;;;;;;;;;11.66;54.00;100245.59;5003644;27;127494;-66
2021/11/25 06:12:06;;;;;;;;;;;;;;;11.67;54.23;100239.09;5002158;27;97892;-66
2021/11/25 06:14:35;;;;;;;;;;;;;;;11.68;54.30;100243.44;5000263;27;118933;-66
2021/11/25 06:17:02;;;;;;;;;;;;;;;11.68;54.01;100241.53;5000276;27;128551;-66
2021/11/25 06:19:29;;;;;;;;;;;;;;;11.68;54.11;100238.84;5002015;27;98054;-66
2021/11/25 06:21:55;;;;;;;;;;;;;;;11.70;54.31;100236.66;5000504;27;102931;-65
2021/11/25 06:24:21;;;;;;;;;;;;;;;11.71;54.09;100238.28;4999644;27;108664;-65
2021/11/25 06:26:49;;;;;;;;;;;;;;;11.72;54.08;100233.69;4981650;27;128071;-65
2021/11/25 06:29:16;;;;;;;;;;;;;;;11.73;54.02;100235.28;5001297;27;99045;-66
2021/11/25 06:31:42;;;;;;;;;;;;;;;11.73;53.88;100230.69;5001248;27;98002;-65
2021/11/25 06:34:09;;;;;;;;;;;;;;;11.73;54.15;100233.41;4999833;27;128140;-66
2021/11/25 06:36:35;;;;;;;;;;;;;;;11.76;54.18;100234.75;5000054;27;99041;-66
2021/11/25 06:39:01;;;;;;;;;;;;;;;11.76;54.21;100232.03;4999998;27;127467;-65
2021/11/25 06:41:27;;;;;;;;;;;;;;;11.77;54.15;100223.66;4983108;27;97996;-65
2021/11/25 06:43:53;;;;;;;;;;;;;;;11.77;54.17;100218.25;5000330;27;98425;-65
2021/11/25 06:46:19;;;;;;;;;;;;;;;11.78;54.10;100219.84;4999107;27;128694;-65
2021/11/25 06:48:45;;;;;;;;;;;;;;;11.79;54.22;100210.69;4998746;27;127609;-66
2021/11/25 06:51:11;;;;;;;;;;;;;;;11.79;54.20;100207.19;5000229;27;116749;-65
2021/11/25 06:53:37;;;;;;;;;;;;;;;11.80;54.01;100212.28;4999049;27;99065;-66
2021/11/25 06:56:03;;;;;;;;;;;;;;;11.81;54.28;100213.09;4999396;27;125738;-66
2021/11/25 06:58:29;;;;;;;;;;;;;;;11.82;54.16;100211.19;5000169;27;98894;-66
2021/11/25 07:00:56;;;;;;;;;;;;;;;11.83;54.23;100210.09;4981969;27;97779;-65
2021/11/25 07:03:22;;;;;;;;;;;;;;;11.84;54.17;100212.56;4999487;27;97955;-66
2021/11/25 07:05:48;;;;;;;;;;;;;;;11.85;54.32;100208.78;4999933;27;119663;-66
2021/11/25 07:08:14;;;;;;;;;;;;;;;11.85;54.22;100216.88;4999507;27;98064;-58
2021/11/25 07:10:40;;;;;;;;;;;;;;;11.86;53.96;100215.78;5001357;27;116967;-66
2021/11/25 07:13:06;;;;;;;;;;;;;;;11.88;54.00;100215.50;5001964;27;98443;-58
2021/11/25 07:15:32;;;;;;;;;;;;;;;11.88;54.30;100213.63;5002006;27;97802;-59
2021/11/25 07:17:57;;;;;;;;;;;;;;;11.90;53.88;100205.22;5001142;27;128600;-58
2021/11/25 07:20:23;;;;;;;;;;;;;;;11.92;54.18;100213.84;5001582;27;118539;-58
2021/11/25 07:22:49;;;;;;;;;;;;;;;11.94;54.25;100208.97;5001305;27;127500;-66
2021/11/25 07:25:16;;;;;;;;;;;;;;;11.94;54.12;100215.16;5002486;27;98491;-66
2021/11/25 07:27:42;;;;;;;;;;;;;;;11.96;54.32;100209.50;5002592;27;97844;-58
2021/11/25 07:30:10;;;;;;;;;;;;;;;11.97;54.26;100206.50;5002852;27;97978;-58
2021/11/25 07:32:36;;;;;;;;;;;;;;;11.98;54.08;100201.91;5000630;27;98506;-58
2021/11/25 07:35:03;;;;;;;;;;;;;;;11.99;54.21;100200.84;5002024;27;98143;-66
2021/11/25 07:37:29;;;;;;;;;;;;;;;12.00;54.08;100205.94;5000266;27;111580;-57
2021/11/25 07:39:57;;;;;;;;;;;;;;;12.01;54.31;100202.16;5000553;27;97931;-58
2021/11/25 07:42:23;;;;;;;;;;;;;;;12.03;54.20;100199.19;4999451;27;98580;-58
2021/11/25 07:44:49;;;;;;;;;;;;;;;12.03;54.26;100197.28;4999598;27;128208;-58
2021/11/25 07:47:20;;;;;;;;;;;;;;;12.05;54.21;100205.09;4999253;27;126661;-59
2021/11/25 07:49:46;;;;;;;;;;;;;;;12.06;54.24;100198.59;5000927;27;97986;-59
2021/11/25 07:52:12;;;;;;;;;;;;;;;12.06;54.19;100204.00;4999126;27;98985;-59
2021/11/25 07:54:38;;;;;;;;;;;;;;;12.08;54.36;100206.44;4998950;27;116486;-58
2021/11/25 07:57:04;;;;;;;;;;;;;;;12.10;54.49;100206.94;4980055;27;127208;-58
2021/11/25 07:59:30;;;;;;;;;;;;;;;12.10;54.34;100196.13;5001055;27;97904;-58
2021/11/25 08:01:56;;;;;;;;;;;;;;;12.12;54.37;100194.78;4999575;27;98482;-58
2021/11/25 08:04:23;;;;;;;;;;;;;;;12.13;54.32;100193.69;4980749;27;99354;-59
2021/11/25 08:06:49;;;;;;;;;;;;;;;12.13;54.28;100185.56;4999273;27;99934;-57
2021/11/25 08:09:16;;;;;;;;;;;;;;;12.16;54.26;100176.09;4999054;27;117702;-58
2021/11/25 08:11:42;;;;;;;;;;;;;;;12.16;54.29;100182.31;4998911;27;98295;-58
2021/11/25 08:14:08;;;;;;;;;;;;;;;12.19;54.36;100194.44;5000616;27;98256;-58
2021/11/25 08:16:34;;;;;;;;;;;;;;;12.20;54.21;100196.06;4998205;27;120254;-57
2021/11/25 08:19:00;;;;;;;;;;;;;;;12.20;54.30;100194.16;4998771;27;118360;-58
2021/11/25 08:21:26;;;;;;;;;;;;;;;12.22;54.60;100194.69;4998207;27;128966;-58
2021/11/25 08:23:52;;;;;;;;;;;;;;;12.23;54.28;100193.59;4997664;27;127648;-58
2021/11/25 08:26:18;;;;;;;;;;;;;;;12.24;54.20;100194.41;4998430;27;128564;-57
2021/11/25 08:28:44;;;;;;;;;;;;;;;12.25;54.31;100193.31;4997748;27;117422;-57
2021/11/25 08:31:10;;;;;;;;;;;;;;;12.25;54.07;100194.09;4999350;27;99233;-58
2021/11/25 08:33:36;;;;;;;;;;;;;;;12.25;54.45;100191.41;4997997;27;98917;-57
2021/11/25 08:36:02;;;;;;;;;;;;;;;12.28;54.48;100196.25;4999620;27;97980;-58
2021/11/25 08:38:29;;;;;;;;;;;;;;;12.31;54.34;100188.66;4999133;27;103377;-57
2021/11/25 08:40:56;;;;;;;;;;;;;;;12.32;54.36;100179.47;4999639;27;98859;-58
2021/11/25 08:43:22;;;;;;;;;;;;;;;12.34;54.54;100182.66;4998895;27;99921;-57
2021/11/25 08:45:48;;;;;;;;;;;;;;;12.36;54.53;100185.91;4998987;27;98562;-58
2021/11/25 08:48:14;;;;;;;;;;;;;;;12.37;54.51;100172.09;4999194;27;97730;-57
2021/11/25 08:50:41;;;;;;;;;;;;;;;12.39;54.59;100167.22;4998671;27;126362;-58
2021/11/25 08:53:07;;;;;;;;;;;;;;;12.41;54.52;100166.94;4999069;27;98627;-58
2021/11/25 08:55:35;;;;;;;;;;;;;;;12.42;54.55;100163.16;4999441;27;117054;-58
2021/11/25 08:58:02;;;;;;;;;;;;;;;12.44;54.36;100167.16;4993470;27;98054;-58
2021/11/25 09:00:28;;;;;;;;;;;;;;;12.45;54.57;100170.66;4998011;27;99247;-58
2021/11/25 09:02:54;;;;;;;;;;;;;;;12.46;54.66;100170.41;4998329;27;98231;-58
2021/11/25 09:05:21;;;;;;;;;;;;;;;12.48;54.55;100168.19;4980507;27;112650;-58
2021/11/25 09:07:48;;;;;;;;;;;;;;;12.49;54.41;100160.88;4999105;27;98004;-58
2021/11/25 09:10:14;;;;;;;;;;;;;;;12.50;54.51;100157.91;4997832;27;111840;-57
2021/11/25 09:12:39;;;;;;;;;;;;;;;12.52;54.67;100154.91;4997143;27;128981;-57
2021/11/25 09:15:06;;;;;;;;;;;;;;;12.52;54.48;100149.50;4998085;27;128580;-58
2021/11/25 09:17:32;;;;;;;;;;;;;;;12.55;54.65;100153.53;4998592;27;98030;-58
2021/11/25 09:19:58;;;;;;;;;;;;;;;12.56;54.49;100149.75;4998511;27;128300;-58
2021/11/25 09:22:24;;;;;;;;;;;;;;;12.56;54.53;100150.53;4998269;27;98973;-58
2021/11/25 09:24:51;;;;;;;;;;;;;;;12.57;54.67;100156.75;4997440;27;127943;-58
2021/11/25 09:27:17;;;;;;;;;;;;;;;12.57;54.71;100154.84;4999167;27;98589;-57
2021/11/25 09:29:43;;;;;;;;;;;;;;;12.59;54.65;100162.69;4997650;27;127662;-58
2021/11/25 09:32:09;;;;;;;;;;;;;;;12.60;54.62;100156.19;4997290;27;126827;-57
2021/11/25 09:34:35;;;;;;;;;;;;;;;12.60;54.77;100156.19;4998367;27;98646;-58
2021/11/25 09:37:00;;;;;;;;;;;;;;;12.60;54.88;100158.88;4997816;27;98155;-57
2021/11/25 09:39:26;;;;;;;;;;;;;;;12.60;54.75;100156.19;4999111;27;106973;-59
2021/11/25 09:41:54;;;;;;;;;;;;;;;12.61;54.99;100147.78;4997704;27;127780;-58
2021/11/25 09:44:20;;;;;;;;;;;;;;;12.61;54.84;100134.25;4997794;27;98732;-58
2021/11/25 09:46:46;;;;;;;;;;;;;;;12.63;54.93;100131.28;4998726;27;97953;-58
2021/11/25 09:49:13;;;;;;;;;;;;;;;12.64;54.84;100127.47;4979431;27;99183;-57
2021/11/25 09:51:39;;;;;;;;;;;;;;;12.65;54.81;100131.78;4979204;27;98395;-58
2021/11/25 09:54:05;;;;;;;;;;;;;;;12.64;54.98;100122.88;4997797;27;127416;-58
2021/11/25 09:56:30;;;;;;;;;;;;;;;12.66;55.00;100130.72;4998502;27;98069;-58
2021/11/25 09:58:56;;;;;;;;;;;;;;;12.65;54.96;100120.97;4998180;27;98531;-57
2021/11/25 10:01:23;;;;;;;;;;;;;;;12.67;55.00;100122.28;4997432;27;99209;-57
2021/11/25 10:03:50;;;;;;;;;;;;;;;12.69;54.78;100113.88;4995256;27;109417;-57
2021/11/25 10:06:20;;;;;;;;;;;;;;;12.69;54.83;100124.69;4998170;27;98130;-57
2021/11/25 10:08:49;;;;;;;;;;;;;;;12.70;55.07;100124.44;4979134;27;99191;-57
2021/11/25 10:11:18;;;;;;;;;;;;;;;12.69;54.87;100114.72;4997917;27;98717;-58
2021/11/25 10:13:48;;;;;;;;;;;;;;;12.71;54.98;100103.59;4998156;27;98053;-58
2021/11/25 10:16:17;;;;;;;;;;;;;;;12.72;54.83;100105.19;4998429;27;98312;-57
2021/11/25 10:18:43;;;;;;;;;;;;;;;12.73;55.03;100098.69;4998233;27;98464;-57
2021/11/25 10:21:15;;;;;;;;;;;;;;;12.73;55.04;100094.09;4997888;27;98171;-58
2021/11/25 10:23:44;;;;;;;;;;;;;;;12.74;55.00;100093.00;4997091;27;98580;-58
2021/11/25 10:26:12;;;;;;;;;;;;;;;12.74;54.90;100074.06;4997906;27;97888;-58
2021/11/25 10:28:47;;;;;;;;;;;;;;;12.76;54.93;100082.69;4997500;27;98405;-58
2021/11/25 10:31:19;;;;;;;;;;;;;;;12.78;54.95;100077.00;4997608;27;98820;-58
2021/11/25 10:33:58;;;;;;;;;;;;;;;12.79;54.98;100073.19;4997126;27;97777;-58
2021/11/25 10:42:12;;;;;;;;;;;;;;;12.83;55.02;100066.09;4994780;27;99509;-58
2021/11/25 10:44:45;;;;;;;;;;;;;;;12.83;55.10;100068.00;4979805;27;98503;-58
2021/11/25 10:47:16;;;;;;;;;;;;;;;12.83;55.27;100058.00;5001711;27;97924;-58
2021/11/25 10:49:56;;;;;;;;;;;;;;;12.84;55.25;100059.59;5001887;27;98229;-58
2021/11/25 10:52:29;;;;;;;;;;;;;;;12.83;55.06;100063.41;5000068;27;97959;-58
2021/11/25 10:55:02;;;;;;;;;;;;;;;12.85;55.07;100063.94;5000789;27;98214;-57
2021/11/25 10:57:41;;;;;;;;;;;;;;;12.84;55.09;100065.00;5000589;27;98034;-58
2021/11/25 11:00:29;;;;;;;;;;;;;;;12.85;55.10;100068.50;4995079;27;98924;-57
2021/11/25 11:03:05;;;;;;;;;;;;;;;12.84;55.18;100059.59;5000077;27;97855;-58
2021/11/25 11:05:32;;;;;;;;;;;;;;;12.85;55.39;100066.63;5000930;27;98307;-58
2021/11/25 11:08:05;;;;;;;;;;;;;;;12.85;55.19;100060.38;4982550;27;98498;-58
2021/11/25 11:10:31;;;;;;;;;;;;;;;12.85;55.29;100065.81;5000617;27;98503;-58
2021/11/25 11:13:11;;;;;;;;;;;;;;;12.86;55.05;100075.53;5001035;27;98449;-66
2021/11/25 11:15:55;;;;;;;;;;;;;;;12.85;55.24;100071.22;5002211;27;97999;-66
2021/11/25 11:18:53;;;;;;;;;;;;;;;12.85;55.20;100063.09;5001716;27;98242;-58
2021/11/25 11:21:39;;;;;;;;;;;;;;;12.84;55.45;100061.50;4996378;27;98471;-66
2021/11/25 11:24:09;;;;;;;;;;;;;;;12.84;55.21;100062.28;4996803;27;98206;-58
2021/11/25 11:26:39;;;;;;;;;;;;;;;12.84;55.32;100062.28;5001622;27;98246;-57
2021/11/25 11:29:05;;;;;;;;;;;;;;;12.84;55.45;100066.91;5002290;27;97868;-66
2021/11/25 11:31:32;;;;;;;;;;;;;;;12.83;55.33;100060.69;5001924;27;108550;-58
2021/11/25 11:33:59;;;;;;;;;;;;;;;12.82;55.19;100056.41;5002368;27;97921;-57
2021/11/25 11:36:25;;;;;;;;;;;;;;;12.83;55.60;100055.28;5001424;27;119475;-66
2021/11/25 11:38:51;;;;;;;;;;;;;;;12.82;55.34;100055.59;5001803;27;109964;-58
2021/11/25 11:41:17;;;;;;;;;;;;;;;12.81;55.55;100045.84;4983324;27;98920;-57
2021/11/25 11:43:43;;;;;;;;;;;;;;;12.81;55.47;100038.56;5002290;27;99306;-57
2021/11/25 11:46:09;;;;;;;;;;;;;;;12.83;55.60;100039.06;5002950;27;99317;-57
2021/11/25 11:48:35;;;;;;;;;;;;;;;12.84;55.58;100027.13;4983819;27;99080;-65
2021/11/25 11:51:09;;;;;;;;;;;;;;;12.84;55.48;100016.31;4967387;27;98422;-65
2021/11/25 11:53:40;;;;;;;;;;;;;;;12.85;55.72;100014.41;4984159;27;98545;-57
2021/11/25 11:56:08;;;;;;;;;;;;;;;12.85;55.48;100003.59;4994475;27;98126;-66
2021/11/25 11:58:53;;;;;;;;;;;;;;;12.85;55.47;100009.84;5002859;27;97877;-57
2021/11/25 12:01:24;;;;;;;;;;;;;;;12.85;55.44;100003.59;5001927;27;99099;-65
2021/11/25 12:03:55;;;;;;;;;;;;;;;12.86;55.39;100002.53;5001577;27;98899;-65
2021/11/25 12:06:34;;;;;;;;;;;;;;;12.85;55.26;99987.38;5002518;27;98025;-66
2021/11/25 12:09:02;;;;;;;;;;;;;;;12.85;55.63;99980.06;4995030;27;98404;-57
2021/11/25 12:11:41;;;;;;;;;;;;;;;12.86;55.23;99968.16;5001704;27;110130;-57
2021/11/25 12:14:17;;;;;;;;;;;;;;;12.87;55.35;99974.38;5002197;27;98841;-57
2021/11/25 12:16:53;;;;;;;;;;;;;;;12.88;55.48;99970.56;5001101;27;97764;-57
2021/11/25 12:19:39;;;;;;;;;;;;;;;12.89;55.53;99962.16;5001382;27;98075;-66
2021/11/25 12:22:15;;;;;;;;;;;;;;;12.89;55.47;99959.47;5000268;27;99017;-57
2021/11/25 12:24:56;;;;;;;;;;;;;;;12.89;55.33;99953.22;5000796;27;98540;-58
2021/11/25 12:27:29;;;;;;;;;;;;;;;12.89;55.66;99948.63;4994320;27;98017;-65
2021/11/25 12:32:41;;;;;;;;;;;;;;;12.88;55.33;99938.91;4999005;27;98745;-59
2021/11/25 12:35:17;;;;;;;;;;;;;;;12.88;55.52;99944.31;5001914;27;97880;-67
2021/11/25 12:37:46;;;;;;;;;;;;;;;12.86;55.45;99948.41;5001571;27;98426;-58
2021/11/25 12:40:21;;;;;;;;;;;;;;;12.84;55.33;99964.94;5002133;27;98010;-67
2021/11/25 12:42:53;;;;;;;;;;;;;;;12.82;55.63;99963.63;5001788;27;98145;-67
2021/11/25 12:45:26;;;;;;;;;;;;;;;12.80;55.32;99963.09;5002540;27;98662;-58
2021/11/25 12:48:12;;;;;;;;;;;;;;;12.76;55.55;99955.56;5000460;27;97878;-66